createdAt,value
2017-12-10T00:00:14.257Z,1022.82
2017-12-10T00:01:14.240Z,1022.86
2017-12-10T00:02:14.225Z,1022.87
2017-12-10T00:03:14.212Z,1022.84
2017-12-10T00:04:14.198Z,1022.76
2017-12-10T00:05:14.185Z,1022.79
2017-12-10T00:06:14.172Z,1022.77
2017-12-10T00:07:14.156Z,1022.73
2017-12-10T00:08:14.142Z,1022.75
2017-12-10T00:09:14.127Z,1022.71
2017-12-10T00:10:14.111Z,1022.67
2017-12-10T00:11:14.100Z,1022.7
2017-12-10T00:12:14.082Z,1022.65
2017-12-10T00:13:14.070Z,1022.61
2017-12-10T00:14:14.060Z,1022.64
2017-12-10T00:15:14.041Z,1022.65
2017-12-10T00:16:14.026Z,1022.59
2017-12-10T00:17:14.020Z,1022.59
2017-12-10T00:18:14.000Z,1022.59
2017-12-10T00:19:13.986Z,1022.59
2017-12-10T00:20:13.972Z,1022.6
2017-12-10T00:21:13.958Z,1022.59
2017-12-10T00:22:13.942Z,1022.6
2017-12-10T00:23:13.934Z,1022.62
2017-12-10T00:24:13.913Z,1022.65
2017-12-10T00:25:13.903Z,1022.65
2017-12-10T00:26:13.886Z,1022.63
2017-12-10T00:27:13.870Z,1022.64
2017-12-10T00:28:13.857Z,1022.62
2017-12-10T00:29:13.843Z,1022.66
2017-12-10T00:30:13.837Z,1022.68
2017-12-10T00:31:13.816Z,1022.68
2017-12-10T00:32:13.800Z,1022.69
2017-12-10T00:33:13.786Z,1022.73
2017-12-10T00:34:13.775Z,1022.75
2017-12-10T00:35:13.760Z,1022.73
2017-12-10T00:36:13.746Z,1022.79
2017-12-10T00:37:13.730Z,1022.75
2017-12-10T00:38:13.718Z,1022.72
2017-12-10T00:39:13.701Z,1022.74
2017-12-10T00:40:13.689Z,1022.67
2017-12-10T00:41:13.677Z,1022.74
2017-12-10T00:42:13.662Z,1022.78
2017-12-10T00:43:13.648Z,1022.71
2017-12-10T00:44:13.633Z,1022.71
2017-12-10T00:45:13.618Z,1022.72
2017-12-10T00:46:13.604Z,1022.72
2017-12-10T00:47:13.588Z,1022.68
2017-12-10T00:48:13.576Z,1022.74
2017-12-10T00:49:13.563Z,1022.74
2017-12-10T00:50:13.547Z,1022.78
2017-12-10T00:51:13.535Z,1022.69
2017-12-10T00:52:13.519Z,1022.76
2017-12-10T00:53:13.503Z,1022.81
2017-12-10T00:54:13.487Z,1022.8
2017-12-10T00:55:13.473Z,1022.77
2017-12-10T00:56:13.459Z,1022.75
2017-12-10T00:57:13.448Z,1022.73
2017-12-10T00:58:13.444Z,1022.73
2017-12-10T00:59:13.420Z,1022.78
2017-12-10T01:00:13.401Z,1022.75
2017-12-10T01:01:13.393Z,1022.77
2017-12-10T01:02:13.374Z,1022.74
2017-12-10T01:03:13.360Z,1022.76
2017-12-10T01:04:13.345Z,1022.71
2017-12-10T01:05:13.333Z,1022.76
2017-12-10T01:06:13.324Z,1022.76
2017-12-10T01:07:13.304Z,1022.78
2017-12-10T01:08:13.291Z,1022.7
2017-12-10T01:09:13.274Z,1022.73
2017-12-10T01:10:13.259Z,1022.71
2017-12-10T01:11:13.245Z,1022.73
2017-12-10T01:12:13.231Z,1022.77
2017-12-10T01:13:13.217Z,1022.76
2017-12-10T01:14:13.203Z,1022.74
2017-12-10T01:15:13.188Z,1022.8
2017-12-10T01:16:13.176Z,1022.75
2017-12-10T01:17:13.162Z,1022.79
2017-12-10T01:18:13.146Z,1022.82
2017-12-10T01:19:13.131Z,1022.74
2017-12-10T01:20:13.118Z,1022.78
2017-12-10T01:21:13.102Z,1022.77
2017-12-10T01:22:13.087Z,1022.75
2017-12-10T01:23:13.073Z,1022.75
2017-12-10T01:24:13.059Z,1022.74
2017-12-10T01:25:13.045Z,1022.76
2017-12-10T01:26:13.030Z,1022.71
2017-12-10T01:27:13.015Z,1022.68
2017-12-10T01:28:13.006Z,1022.73
2017-12-10T01:29:12.989Z,1022.56
2017-12-10T01:30:12.976Z,1022.67
2017-12-10T01:31:12.961Z,1022.69
2017-12-10T01:32:12.945Z,1022.66
2017-12-10T01:33:12.931Z,1022.64
2017-12-10T01:34:12.920Z,1022.61
2017-12-10T01:35:12.961Z,1022.57
2017-12-10T01:36:12.887Z,1022.58
2017-12-10T01:37:12.875Z,1022.62
2017-12-10T01:38:12.860Z,1022.61
2017-12-10T01:39:12.848Z,1022.6
2017-12-10T01:40:12.831Z,1022.55
2017-12-10T01:41:12.819Z,1022.53
2017-12-10T01:42:12.845Z,1022.5
2017-12-10T01:43:12.790Z,1022.44
2017-12-10T01:44:12.775Z,1022.57
2017-12-10T01:45:12.756Z,1022.49
2017-12-10T01:46:12.746Z,1022.47
2017-12-10T01:47:12.731Z,1022.51
2017-12-10T01:48:12.723Z,1022.44
2017-12-10T01:49:12.703Z,1022.47
2017-12-10T01:50:12.689Z,1022.44
2017-12-10T01:51:12.675Z,1022.45
2017-12-10T01:52:12.658Z,1022.41
2017-12-10T01:53:12.643Z,1022.41
2017-12-10T01:54:12.632Z,1022.39
2017-12-10T01:55:12.614Z,1022.34
2017-12-10T01:56:12.599Z,1022.29
2017-12-10T01:57:12.585Z,1022.36
2017-12-10T01:58:12.576Z,1022.39
2017-12-10T01:59:12.556Z,1022.32
2017-12-10T02:00:12.545Z,1022.36
2017-12-10T02:01:12.532Z,1022.35
2017-12-10T02:02:12.515Z,1022.35
2017-12-10T02:03:12.502Z,1022.43
2017-12-10T02:04:12.485Z,1022.41
2017-12-10T02:05:12.471Z,1022.42
2017-12-10T02:06:12.455Z,1022.43
2017-12-10T02:07:12.442Z,1022.45
2017-12-10T02:08:12.427Z,1022.4
2017-12-10T02:09:12.415Z,1022.43
2017-12-10T02:10:12.400Z,1022.38
2017-12-10T02:11:12.383Z,1022.39
2017-12-10T02:12:12.373Z,1022.32
2017-12-10T02:13:12.362Z,1022.34
2017-12-10T02:14:12.347Z,1022.34
2017-12-10T02:15:12.326Z,1022.31
2017-12-10T02:16:12.311Z,1022.32
2017-12-10T02:17:12.300Z,1022.31
2017-12-10T02:18:12.282Z,1022.43
2017-12-10T02:19:12.271Z,1022.36
2017-12-10T02:20:12.252Z,1022.36
2017-12-10T02:21:12.239Z,1022.34
2017-12-10T02:22:12.228Z,1022.42
2017-12-10T02:23:12.212Z,1022.4
2017-12-10T02:24:12.199Z,1022.41
2017-12-10T02:25:12.183Z,1022.4
2017-12-10T02:26:12.169Z,1022.43
2017-12-10T02:27:12.152Z,1022.38
2017-12-10T02:28:12.139Z,1022.37
2017-12-10T02:29:12.124Z,1022.28
2017-12-10T02:30:12.112Z,1022.35
2017-12-10T02:31:12.093Z,1022.28
2017-12-10T02:32:12.082Z,1022.31
2017-12-10T02:33:12.067Z,1022.27
2017-12-10T02:34:12.052Z,1022.31
2017-12-10T02:35:12.037Z,1022.23
2017-12-10T02:36:12.023Z,1022.22
2017-12-10T02:37:12.008Z,1022.11
2017-12-10T02:38:11.991Z,1022.12
2017-12-10T02:39:12.022Z,1022.08
2017-12-10T02:40:11.964Z,1022.01
2017-12-10T02:41:11.957Z,1021.92
2017-12-10T02:42:11.937Z,1022.03
2017-12-10T02:43:11.919Z,1022.04
2017-12-10T02:44:11.904Z,1022.1
2017-12-10T02:45:11.891Z,1022.11
2017-12-10T02:46:11.874Z,1022.1
2017-12-10T02:47:11.862Z,1022.09
2017-12-10T02:48:11.844Z,1021.87
2017-12-10T02:49:11.831Z,1022.06
2017-12-10T02:50:11.820Z,1022.11
2017-12-10T02:51:11.800Z,1022.04
2017-12-10T02:52:11.789Z,1022.06
2017-12-10T02:53:11.774Z,1022.07
2017-12-10T02:54:11.759Z,1022.04
2017-12-10T02:55:11.742Z,1022.06
2017-12-10T02:56:11.730Z,1021.97
2017-12-10T02:57:11.714Z,1022.03
2017-12-10T02:58:11.700Z,1021.95
2017-12-10T02:59:11.685Z,1021.95
2017-12-10T03:00:11.671Z,1021.87
2017-12-10T03:01:11.653Z,1021.89
2017-12-10T03:02:11.642Z,1021.86
2017-12-10T03:03:11.626Z,1021.78
2017-12-10T03:04:11.609Z,1021.82
2017-12-10T03:05:11.594Z,1021.83
2017-12-10T03:06:11.580Z,1021.81
2017-12-10T03:07:11.567Z,1021.79
2017-12-10T03:08:11.552Z,1021.72
2017-12-10T03:09:11.536Z,1021.79
2017-12-10T03:10:11.522Z,1021.78
2017-12-10T03:11:11.507Z,1021.7
2017-12-10T03:12:11.494Z,1021.81
2017-12-10T03:13:11.478Z,1021.81
2017-12-10T03:14:11.463Z,1021.77
2017-12-10T03:15:11.446Z,1021.77
2017-12-10T03:16:11.431Z,1021.76
2017-12-10T03:17:11.418Z,1021.73
2017-12-10T03:18:11.401Z,1021.77
2017-12-10T03:19:11.386Z,1021.75
2017-12-10T03:20:11.372Z,1021.74
2017-12-10T03:21:11.357Z,1021.74
2017-12-10T03:22:11.343Z,1021.72
2017-12-10T03:23:11.330Z,1021.75
2017-12-10T03:24:11.315Z,1021.72
2017-12-10T03:25:11.298Z,1021.72
2017-12-10T03:26:11.285Z,1021.69
2017-12-10T03:27:11.267Z,1021.71
2017-12-10T03:28:11.252Z,1021.73
2017-12-10T03:29:11.237Z,1021.72
2017-12-10T03:30:11.232Z,1021.65
2017-12-10T03:31:11.208Z,1021.66
2017-12-10T03:32:11.195Z,1021.62
2017-12-10T03:33:11.178Z,1021.59
2017-12-10T03:34:11.163Z,1021.62
2017-12-10T03:35:11.147Z,1021.65
2017-12-10T03:36:11.132Z,1021.63
2017-12-10T03:37:11.119Z,1021.63
2017-12-10T03:38:11.104Z,1021.63
2017-12-10T03:39:11.087Z,1021.61
2017-12-10T03:40:11.074Z,1021.59
2017-12-10T03:41:11.056Z,1021.59
2017-12-10T03:42:11.045Z,1021.59
2017-12-10T03:43:11.026Z,1021.5
2017-12-10T03:44:11.013Z,1021.49
2017-12-10T03:45:10.996Z,1021.51
2017-12-10T03:46:10.983Z,1021.52
2017-12-10T03:47:10.967Z,1021.49
2017-12-10T03:48:10.950Z,1021.43
2017-12-10T03:49:10.939Z,1021.46
2017-12-10T03:50:10.920Z,1021.46
2017-12-10T03:51:10.909Z,1021.41
2017-12-10T03:52:10.891Z,1021.43
2017-12-10T03:53:10.876Z,1021.4
2017-12-10T03:54:10.861Z,1021.38
2017-12-10T03:55:10.846Z,1021.33
2017-12-10T03:56:10.833Z,1021.33
2017-12-10T03:57:10.829Z,1021.31
2017-12-10T03:58:10.803Z,1021.27
2017-12-10T03:59:10.784Z,1021.32
2017-12-10T04:00:10.773Z,1021.32
2017-12-10T04:01:10.758Z,1021.34
2017-12-10T04:02:10.741Z,1021.34
2017-12-10T04:03:10.728Z,1021.3
2017-12-10T04:04:10.714Z,1021.39
2017-12-10T04:05:10.697Z,1021.29
2017-12-10T04:06:10.680Z,1021.35
2017-12-10T04:07:10.664Z,1021.37
2017-12-10T04:08:10.655Z,1021.38
2017-12-10T04:09:10.633Z,1021.38
2017-12-10T04:10:10.618Z,1021.35
2017-12-10T04:11:10.604Z,1021.41
2017-12-10T04:12:10.592Z,1021.43
2017-12-10T04:13:10.576Z,1021.48
2017-12-10T04:14:10.557Z,1021.48
2017-12-10T04:15:10.549Z,1021.52
2017-12-10T04:16:10.531Z,1021.48
2017-12-10T04:17:10.515Z,1021.53
2017-12-10T04:18:10.498Z,1021.63
2017-12-10T04:19:10.483Z,1021.64
2017-12-10T04:20:10.468Z,1021.65
2017-12-10T04:21:10.452Z,1021.64
2017-12-10T04:22:10.441Z,1021.64
2017-12-10T04:23:10.427Z,1021.73
2017-12-10T04:24:10.406Z,1021.69
2017-12-10T04:25:10.394Z,1021.73
2017-12-10T04:26:10.375Z,1021.74
2017-12-10T04:27:10.360Z,1021.75
2017-12-10T04:28:10.347Z,1021.79
2017-12-10T04:29:10.328Z,1021.79
2017-12-10T04:30:10.316Z,1021.77
2017-12-10T04:31:10.299Z,1021.78
2017-12-10T04:32:10.283Z,1021.76
2017-12-10T04:33:10.268Z,1021.75
2017-12-10T04:34:10.254Z,1021.76
2017-12-10T04:35:10.237Z,1021.73
2017-12-10T04:36:10.220Z,1021.73
2017-12-10T04:37:10.206Z,1021.71
2017-12-10T04:38:10.190Z,1021.72
2017-12-10T04:39:10.177Z,1021.69
2017-12-10T04:40:10.162Z,1021.67
2017-12-10T04:41:10.146Z,1021.69
2017-12-10T04:42:10.128Z,1021.69
2017-12-10T04:43:10.115Z,1021.7
2017-12-10T04:44:10.097Z,1021.7
2017-12-10T04:45:10.085Z,1021.69
2017-12-10T04:46:10.068Z,1021.7
2017-12-10T04:47:10.051Z,1021.64
2017-12-10T04:48:10.038Z,1021.65
2017-12-10T04:49:10.020Z,1021.68
2017-12-10T04:50:10.006Z,1021.75
2017-12-10T04:51:09.987Z,1021.73
2017-12-10T04:52:09.973Z,1021.73
2017-12-10T04:53:09.957Z,1021.85
2017-12-10T04:54:09.941Z,1021.85
2017-12-10T04:55:09.926Z,1021.86
2017-12-10T04:56:09.913Z,1021.83
2017-12-10T04:57:09.893Z,1021.82
2017-12-10T04:58:09.880Z,1021.82
2017-12-10T04:59:09.863Z,1021.73
2017-12-10T05:00:09.849Z,1021.69
2017-12-10T05:01:09.836Z,1021.74
2017-12-10T05:02:09.815Z,1021.64
2017-12-10T05:03:09.800Z,1021.59
2017-12-10T05:04:09.784Z,1021.51
2017-12-10T05:05:09.770Z,1021.41
2017-12-10T05:06:09.758Z,1021.4
2017-12-10T05:07:09.740Z,1021.36
2017-12-10T05:08:09.720Z,1021.32
2017-12-10T05:09:09.705Z,1021.22
2017-12-10T05:10:09.690Z,1021.28
2017-12-10T05:11:09.674Z,1021.31
2017-12-10T05:12:09.658Z,1021.29
2017-12-10T05:13:09.646Z,1021.3
2017-12-10T05:14:09.626Z,1021.25
2017-12-10T05:15:09.613Z,1021.24
2017-12-10T05:16:09.597Z,1021.32
2017-12-10T05:17:09.578Z,1021.27
2017-12-10T05:18:09.564Z,1021.29
2017-12-10T05:19:09.547Z,1021.28
2017-12-10T05:20:09.531Z,1021.27
2017-12-10T05:21:09.517Z,1021.3
2017-12-10T05:22:09.502Z,1021.23
2017-12-10T05:23:09.484Z,1021.21
2017-12-10T05:24:09.470Z,1021.21
2017-12-10T05:25:09.456Z,1021.19
2017-12-10T05:26:09.441Z,1021.17
2017-12-10T05:27:09.422Z,1021.21
2017-12-10T05:28:09.407Z,1021.17
2017-12-10T05:29:09.394Z,1021.14
2017-12-10T05:30:09.375Z,1021.13
2017-12-10T05:31:09.362Z,1021.08
2017-12-10T05:32:09.347Z,1021.06
2017-12-10T05:33:09.331Z,1021.09
2017-12-10T05:34:09.315Z,1021.16
2017-12-10T05:35:09.298Z,1021.13
2017-12-10T05:36:09.282Z,1021.11
2017-12-10T05:37:09.269Z,1021.17
2017-12-10T05:38:09.250Z,1021.09
2017-12-10T05:39:09.235Z,1021.02
2017-12-10T05:40:09.221Z,1021.04
2017-12-10T05:41:09.205Z,1021.03
2017-12-10T05:42:09.187Z,1021.01
2017-12-10T05:43:09.172Z,1021.06
2017-12-10T05:44:09.157Z,1021.04
2017-12-10T05:45:09.142Z,1021.06
2017-12-10T05:46:09.124Z,1021.01
2017-12-10T05:47:09.112Z,1021.05
2017-12-10T05:48:09.097Z,1021.12
2017-12-10T05:49:09.077Z,1021.04
2017-12-10T05:50:09.062Z,1021.1
2017-12-10T05:51:09.046Z,1021.14
2017-12-10T05:52:09.030Z,1021.19
2017-12-10T05:53:09.014Z,1021.19
2017-12-10T05:54:09.002Z,1021.26
2017-12-10T05:55:09.233Z,1021.2
2017-12-10T05:56:08.969Z,1021.16
2017-12-10T05:57:08.951Z,1021.12
2017-12-10T05:58:08.936Z,1021.15
2017-12-10T05:59:08.920Z,1021.13
2017-12-10T06:00:08.903Z,1021.09
2017-12-10T06:01:08.888Z,1021.07
2017-12-10T06:02:08.874Z,1021.03
2017-12-10T06:03:08.855Z,1021.03
2017-12-10T06:04:08.842Z,1020.9
2017-12-10T06:05:08.824Z,1020.93
2017-12-10T06:06:08.809Z,1020.9
2017-12-10T06:07:08.794Z,1020.85
2017-12-10T06:08:08.777Z,1020.81
2017-12-10T06:09:08.760Z,1020.83
2017-12-10T06:10:08.747Z,1020.79
2017-12-10T06:11:08.730Z,1020.7
2017-12-10T06:12:08.715Z,1020.71
2017-12-10T06:13:08.700Z,1020.71
2017-12-10T06:14:08.682Z,1020.76
2017-12-10T06:15:08.667Z,1020.84
2017-12-10T06:16:08.651Z,1020.82
2017-12-10T06:17:08.637Z,1020.82
2017-12-10T06:18:08.620Z,1020.82
2017-12-10T06:19:08.600Z,1020.84
2017-12-10T06:20:08.587Z,1020.83
2017-12-10T06:21:08.578Z,1020.89
2017-12-10T06:22:08.557Z,1020.89
2017-12-10T06:23:08.538Z,1020.86
2017-12-10T06:24:08.522Z,1020.81
2017-12-10T06:25:08.512Z,1020.76
2017-12-10T06:26:08.492Z,1020.68
2017-12-10T06:27:08.476Z,1020.68
2017-12-10T06:28:08.457Z,1020.65
2017-12-10T06:29:08.445Z,1020.59
2017-12-10T06:30:08.425Z,1020.64
2017-12-10T06:31:08.413Z,1020.57
2017-12-10T06:32:08.395Z,1020.49
2017-12-10T06:33:08.377Z,1020.54
2017-12-10T06:34:08.363Z,1020.52
2017-12-10T06:35:08.419Z,1020.5
2017-12-10T06:36:08.334Z,1020.52
2017-12-10T06:37:08.316Z,1020.44
2017-12-10T06:38:08.303Z,1020.45
2017-12-10T06:39:08.282Z,1020.43
2017-12-10T06:40:08.268Z,1020.4
2017-12-10T06:41:08.249Z,1020.36
2017-12-10T06:42:08.233Z,1020.37
2017-12-10T06:43:08.276Z,1020.37
2017-12-10T06:44:08.204Z,1020.27
2017-12-10T06:45:08.184Z,1020.23
2017-12-10T06:46:08.169Z,1020.19
2017-12-10T06:47:08.156Z,1020.17
2017-12-10T06:48:08.136Z,1020.14
2017-12-10T06:49:08.121Z,1020.08
2017-12-10T06:50:08.108Z,1020.02
2017-12-10T06:51:08.090Z,1019.96
2017-12-10T06:52:08.073Z,1019.94
2017-12-10T06:53:08.059Z,1019.92
2017-12-10T06:54:08.041Z,1019.87
2017-12-10T06:55:08.024Z,1019.83
2017-12-10T06:56:08.074Z,1019.85
2017-12-10T06:57:07.995Z,1019.78
2017-12-10T06:58:07.977Z,1019.73
2017-12-10T06:59:07.963Z,1019.66
2017-12-10T07:00:07.952Z,1019.64
2017-12-10T07:01:07.932Z,1019.63
2017-12-10T07:02:07.915Z,1019.64
2017-12-10T07:03:07.898Z,1019.56
2017-12-10T07:04:07.884Z,1019.61
2017-12-10T07:05:07.865Z,1019.65
2017-12-10T07:06:07.851Z,1019.64
2017-12-10T07:07:07.835Z,1019.62
2017-12-10T07:08:07.821Z,1019.66
2017-12-10T07:09:07.806Z,1019.62
2017-12-10T07:10:07.787Z,1019.61
2017-12-10T07:11:07.771Z,1019.57
2017-12-10T07:12:07.760Z,1019.58
2017-12-10T07:13:07.742Z,1019.62
2017-12-10T07:14:07.727Z,1019.58
2017-12-10T07:15:07.709Z,1019.55
2017-12-10T07:16:07.694Z,1019.56
2017-12-10T07:17:07.676Z,1019.51
2017-12-10T07:18:07.661Z,1019.48
2017-12-10T07:19:07.649Z,1019.48
2017-12-10T07:20:07.631Z,1019.49
2017-12-10T07:21:07.613Z,1019.47
2017-12-10T07:22:07.598Z,1019.47
2017-12-10T07:23:07.583Z,1019.41
2017-12-10T07:24:07.569Z,1019.4
2017-12-10T07:25:07.553Z,1019.35
2017-12-10T07:26:07.534Z,1019.33
2017-12-10T07:27:07.522Z,1019.33
2017-12-10T07:28:07.506Z,1019.33
2017-12-10T07:29:07.488Z,1019.29
2017-12-10T07:30:07.477Z,1019.32
2017-12-10T07:31:07.459Z,1019.28
2017-12-10T07:32:07.444Z,1019.27
2017-12-10T07:33:07.427Z,1019.2
2017-12-10T07:34:07.411Z,1019.18
2017-12-10T07:35:07.397Z,1019.19
2017-12-10T07:36:07.382Z,1019.17
2017-12-10T07:37:07.366Z,1019.14
2017-12-10T07:38:07.350Z,1019.12
2017-12-10T07:39:07.334Z,1019.08
2017-12-10T07:40:07.321Z,1019.05
2017-12-10T07:41:07.303Z,1019.12
2017-12-10T07:42:07.322Z,1019.1
2017-12-10T07:43:07.270Z,1019.02
2017-12-10T07:44:07.257Z,1019.03
2017-12-10T07:45:07.241Z,1019
2017-12-10T07:46:07.226Z,1018.99
2017-12-10T07:47:07.211Z,1018.99
2017-12-10T07:48:07.192Z,1018.97
2017-12-10T07:49:07.176Z,1019
2017-12-10T07:50:07.162Z,1018.95
2017-12-10T07:51:07.147Z,1018.92
2017-12-10T07:52:07.129Z,1018.89
2017-12-10T07:53:07.115Z,1018.9
2017-12-10T07:54:07.097Z,1018.87
2017-12-10T07:55:07.084Z,1018.82
2017-12-10T07:56:07.067Z,1018.86
2017-12-10T07:57:07.051Z,1018.72
2017-12-10T07:58:07.039Z,1018.69
2017-12-10T07:59:07.023Z,1018.63
2017-12-10T08:00:07.007Z,1018.59
2017-12-10T08:01:06.989Z,1018.55
2017-12-10T08:02:06.975Z,1018.46
2017-12-10T08:03:06.960Z,1018.41
2017-12-10T08:04:06.944Z,1018.33
2017-12-10T08:05:06.928Z,1018.26
2017-12-10T08:06:06.912Z,1018.2
2017-12-10T08:07:06.897Z,1018.19
2017-12-10T08:08:06.879Z,1018.17
2017-12-10T08:09:06.864Z,1018.14
2017-12-10T08:10:06.849Z,1018.17
2017-12-10T08:11:06.838Z,1018.09
2017-12-10T08:12:06.822Z,1018.02
2017-12-10T08:13:06.805Z,1018.01
2017-12-10T08:14:06.790Z,1017.96
2017-12-10T08:15:06.775Z,1017.92
2017-12-10T08:16:06.760Z,1017.91
2017-12-10T08:17:06.744Z,1017.89
2017-12-10T08:18:06.726Z,1017.87
2017-12-10T08:19:06.711Z,1017.7
2017-12-10T08:20:06.698Z,1017.75
2017-12-10T08:21:06.682Z,1017.74
2017-12-10T08:22:06.666Z,1017.68
2017-12-10T08:23:06.652Z,1017.64
2017-12-10T08:24:06.638Z,1017.55
2017-12-10T08:25:06.628Z,1017.46
2017-12-10T08:26:06.606Z,1017.4
2017-12-10T08:27:06.594Z,1017.4
2017-12-10T08:28:06.575Z,1017.38
2017-12-10T08:29:06.561Z,1017.25
2017-12-10T08:30:06.546Z,1017.18
2017-12-10T08:31:06.534Z,1017.09
2017-12-10T08:32:06.518Z,1017.06
2017-12-10T08:33:06.503Z,1017.08
2017-12-10T08:34:06.490Z,1017.03
2017-12-10T08:35:06.474Z,1016.95
2017-12-10T08:36:06.457Z,1017
2017-12-10T08:37:06.445Z,1016.99
2017-12-10T08:38:06.429Z,1016.97
2017-12-10T08:39:06.416Z,1016.88
2017-12-10T08:40:06.400Z,1016.91
2017-12-10T08:41:06.386Z,1016.87
2017-12-10T08:42:06.369Z,1016.9
2017-12-10T08:43:06.356Z,1016.88
2017-12-10T08:44:06.344Z,1016.95
2017-12-10T08:45:06.324Z,1016.9
2017-12-10T08:46:06.311Z,1016.91
2017-12-10T08:47:06.296Z,1016.88
2017-12-10T08:48:06.281Z,1016.89
2017-12-10T08:49:06.269Z,1016.88
2017-12-10T08:50:06.256Z,1016.84
2017-12-10T08:51:06.238Z,1016.88
2017-12-10T08:52:06.226Z,1016.89
2017-12-10T08:53:06.209Z,1016.85
2017-12-10T08:54:06.195Z,1016.83
2017-12-10T08:55:06.182Z,1016.78
2017-12-10T08:56:06.165Z,1016.7
2017-12-10T08:57:06.154Z,1016.64
2017-12-10T08:58:06.137Z,1016.57
2017-12-10T08:59:06.123Z,1016.54
2017-12-10T09:00:06.107Z,1016.65
2017-12-10T09:01:06.097Z,1016.61
2017-12-10T09:02:06.081Z,1016.61
2017-12-10T09:03:06.068Z,1016.58
2017-12-10T09:04:06.050Z,1016.58
2017-12-10T09:05:06.046Z,1016.54
2017-12-10T09:06:06.024Z,1016.5
2017-12-10T09:07:06.010Z,1016.52
2017-12-10T09:08:05.991Z,1016.58
2017-12-10T09:09:05.981Z,1016.56
2017-12-10T09:10:05.966Z,1016.55
2017-12-10T09:11:05.949Z,1016.58
2017-12-10T09:12:05.937Z,1016.53
2017-12-10T09:13:05.920Z,1016.5
2017-12-10T09:14:05.906Z,1016.47
2017-12-10T09:15:05.893Z,1016.47
2017-12-10T09:16:05.880Z,1016.47
2017-12-10T09:17:05.869Z,1016.4
2017-12-10T09:18:05.850Z,1016.5
2017-12-10T09:19:05.834Z,1016.47
2017-12-10T09:20:05.819Z,1016.47
2017-12-10T09:21:05.804Z,1016.46
2017-12-10T09:22:05.791Z,1016.39
2017-12-10T09:23:05.778Z,1016.5
2017-12-10T09:24:05.758Z,1016.43
2017-12-10T09:25:05.745Z,1016.42
2017-12-10T09:26:05.734Z,1016.44
2017-12-10T09:27:05.719Z,1016.42
2017-12-10T09:28:05.704Z,1016.38
2017-12-10T09:29:05.687Z,1016.4
2017-12-10T09:30:05.672Z,1016.39
2017-12-10T09:31:05.658Z,1016.38
2017-12-10T09:32:05.645Z,1016.25
2017-12-10T09:33:05.629Z,1016.3
2017-12-10T09:34:05.618Z,1016.27
2017-12-10T09:35:05.600Z,1016.22
2017-12-10T09:36:05.584Z,1016.23
2017-12-10T09:37:05.574Z,1016.3
2017-12-10T09:38:05.557Z,1016.35
2017-12-10T09:39:05.542Z,1016.37
2017-12-10T09:40:05.528Z,1016.27
2017-12-10T09:41:05.542Z,1016.35
2017-12-10T09:42:05.497Z,1016.38
2017-12-10T09:43:05.481Z,1016.41
2017-12-10T09:44:05.470Z,1016.42
2017-12-10T09:45:05.454Z,1016.35
2017-12-10T09:46:05.440Z,1016.33
2017-12-10T09:47:05.424Z,1016.32
2017-12-10T09:48:05.410Z,1016.21
2017-12-10T09:49:05.392Z,1016.25
2017-12-10T09:50:05.377Z,1016.26
2017-12-10T09:51:05.364Z,1016.23
2017-12-10T09:52:05.351Z,1016.2
2017-12-10T09:53:05.334Z,1016.21
2017-12-10T09:54:05.317Z,1016.15
2017-12-10T09:55:05.304Z,1016.08
2017-12-10T09:56:05.286Z,1016.02
2017-12-10T09:57:05.275Z,1015.99
2017-12-10T09:58:05.256Z,1015.85
2017-12-10T09:59:05.251Z,1015.83
2017-12-10T10:00:05.229Z,1015.81
2017-12-10T10:01:05.218Z,1015.74
2017-12-10T10:02:05.199Z,1015.72
2017-12-10T10:03:05.185Z,1015.66
2017-12-10T10:04:05.168Z,1015.63
2017-12-10T10:05:05.152Z,1015.55
2017-12-10T10:06:05.143Z,1015.56
2017-12-10T10:07:05.125Z,1015.51
2017-12-10T10:08:05.106Z,1015.47
2017-12-10T10:09:05.095Z,1015.49
2017-12-10T10:10:05.077Z,1015.45
2017-12-10T10:11:05.064Z,1015.38
2017-12-10T10:12:05.048Z,1015.33
2017-12-10T10:13:05.031Z,1015.29
2017-12-10T10:14:05.017Z,1015.25
2017-12-10T10:15:05.003Z,1015.16
2017-12-10T10:16:04.989Z,1015.13
2017-12-10T10:17:04.971Z,1015.11
2017-12-10T10:18:04.959Z,1015.02
2017-12-10T10:19:04.940Z,1014.95
2017-12-10T10:20:04.929Z,1014.95
2017-12-10T10:21:04.914Z,1014.94
2017-12-10T10:22:04.896Z,1014.95
2017-12-10T10:23:04.906Z,1014.91
2017-12-10T10:24:04.873Z,1014.86
2017-12-10T10:25:04.856Z,1014.83
2017-12-10T10:26:04.869Z,1014.81
2017-12-10T10:27:04.824Z,1014.73
2017-12-10T10:28:04.809Z,1014.57
2017-12-10T10:29:04.798Z,1014.39
2017-12-10T10:30:04.777Z,1014.2
2017-12-10T10:31:04.765Z,1014.11
2017-12-10T10:32:04.753Z,1013.98
2017-12-10T10:33:04.733Z,1013.81
2017-12-10T10:34:04.716Z,1013.65
2017-12-10T10:35:04.711Z,1013.5
2017-12-10T10:36:04.691Z,1013.49
2017-12-10T10:37:04.679Z,1013.42
2017-12-10T10:38:04.663Z,1013.44
2017-12-10T10:39:04.649Z,1013.44
2017-12-10T10:40:04.634Z,1013.42
2017-12-10T10:41:04.622Z,1013.43
2017-12-10T10:42:04.601Z,1013.34
2017-12-10T10:43:04.590Z,1013.25
2017-12-10T10:44:04.574Z,1013.32
2017-12-10T10:45:04.563Z,1013.23
2017-12-10T10:46:04.547Z,1013.22
2017-12-10T10:47:04.534Z,1013.24
2017-12-10T10:48:04.514Z,1013.21
2017-12-10T10:49:04.501Z,1013.17
2017-12-10T10:50:04.492Z,1013.13
2017-12-10T10:51:04.475Z,1013.19
2017-12-10T10:52:04.459Z,1013.19
2017-12-10T10:53:04.448Z,1013.15
2017-12-10T10:54:04.446Z,1013.16
2017-12-10T10:55:04.419Z,1013.11
2017-12-10T10:56:04.404Z,1013.03
2017-12-10T10:57:04.391Z,1013.04
2017-12-10T10:58:04.377Z,1013.06
2017-12-10T10:59:04.360Z,1013
2017-12-10T11:00:04.349Z,1012.94
2017-12-10T11:01:04.331Z,1012.86
2017-12-10T11:02:04.321Z,1012.81
2017-12-10T11:03:04.303Z,1012.79
2017-12-10T11:04:04.290Z,1012.7
2017-12-10T11:05:04.275Z,1012.69
2017-12-10T11:06:04.264Z,1012.69
2017-12-10T11:07:04.251Z,1012.71
2017-12-10T11:08:04.233Z,1012.72
2017-12-10T11:09:04.223Z,1012.72
2017-12-10T11:10:04.213Z,1012.68
2017-12-10T11:11:04.189Z,1012.63
2017-12-10T11:12:04.180Z,1012.64
2017-12-10T11:13:04.165Z,1012.55
2017-12-10T11:14:04.148Z,1012.59
2017-12-10T11:15:04.136Z,1012.68
2017-12-10T11:16:04.120Z,1012.65
2017-12-10T11:17:04.110Z,1012.68
2017-12-10T11:18:04.091Z,1012.6
2017-12-10T11:19:04.079Z,1012.63
2017-12-10T11:20:04.063Z,1012.57
2017-12-10T11:21:04.047Z,1012.58
2017-12-10T11:22:04.038Z,1012.55
2017-12-10T11:23:04.022Z,1012.55
2017-12-10T11:24:04.017Z,1012.55
2017-12-10T11:25:03.989Z,1012.52
2017-12-10T11:26:03.976Z,1012.41
2017-12-10T11:27:03.964Z,1012.37
2017-12-10T11:28:03.951Z,1012.26
2017-12-10T11:29:03.935Z,1012.22
2017-12-10T11:30:03.921Z,1012.11
2017-12-10T11:31:03.904Z,1012.11
2017-12-10T11:32:03.893Z,1012.07
2017-12-10T11:33:03.875Z,1012.09
2017-12-10T11:34:03.864Z,1012.08
2017-12-10T11:35:03.847Z,1012.14
2017-12-10T11:36:03.835Z,1012.06
2017-12-10T11:37:03.818Z,1012.03
2017-12-10T11:38:03.805Z,1012
2017-12-10T11:39:03.787Z,1011.91
2017-12-10T11:40:03.779Z,1011.91
2017-12-10T11:41:03.759Z,1011.81
2017-12-10T11:42:03.746Z,1011.8
2017-12-10T11:43:03.730Z,1011.81
2017-12-10T11:44:03.720Z,1011.84
2017-12-10T11:45:03.705Z,1011.8
2017-12-10T11:46:03.691Z,1011.77
2017-12-10T11:47:03.673Z,1011.7
2017-12-10T11:48:03.662Z,1011.71
2017-12-10T11:49:03.645Z,1011.67
2017-12-10T11:50:03.633Z,1011.71
2017-12-10T11:51:03.620Z,1011.69
2017-12-10T11:52:03.601Z,1011.66
2017-12-10T11:53:03.591Z,1011.66
2017-12-10T11:54:03.581Z,1011.75
2017-12-10T11:55:03.560Z,1011.72
2017-12-10T11:56:03.546Z,1011.66
2017-12-10T11:57:03.529Z,1011.63
2017-12-10T11:58:03.518Z,1011.57
2017-12-10T11:59:03.509Z,1011.51
2017-12-10T12:00:03.490Z,1011.49
2017-12-10T12:01:03.482Z,1011.4
2017-12-10T12:02:03.462Z,1011.23
2017-12-10T12:03:03.444Z,1011.17
2017-12-10T12:04:03.429Z,1011.13
2017-12-10T12:05:03.412Z,1011.1
2017-12-10T12:06:03.397Z,1010.95
2017-12-10T12:07:03.386Z,1010.86
2017-12-10T12:08:03.372Z,1010.82